sensor_id;sensor_type;location;lat;lon;timestamp;pressure;altitude;pressure_sealevel;temperature;humidity
3178;BME280;38141;42.666;23.344;2023-06-22T00:01:17;95116.56;;;19.12;100.00
3178;BME280;38141;42.666;23.344;2023-06-22T00:03:44;95110.53;;;19.01;100.00
3178;BME280;38141;42.666;23.344;2023-06-22T00:06:11;95107.22;;;18.90;100.00
3178;BME280;38141;42.666;23.344;2023-06-22T00:08:38;95121.47;;;18.85;100.00
3178;BME280;38141;42.666;23.344;2023-06-22T00:11:05;95110.34;;;18.92;100.00
3178;BME280;38141;42.666;23.344;2023-06-22T00:13:31;95110.41;;;18.88;100.00
3178;BME280;38141;42.666;23.344;2023-06-22T00:16:00;95093.66;;;18.67;100.00
3178;BME280;38141;42.666;23.344;2023-06-22T00:18:26;95117.50;;;18.86;100.00
3178;BME280;38141;42.666;23.344;2023-06-22T00:20:55;95101.06;;;18.86;100.00
3178;BME280;38141;42.666;23.344;2023-06-22T00:23:24;95104.06;;;18.91;100.00
3178;BME280;38141;42.666;23.344;2023-06-22T00:25:51;95081.81;;;18.89;100.00
3178;BME280;38141;42.666;23.344;2023-06-22T00:28:18;95095.75;;;18.95;100.00
3178;BME280;38141;42.666;23.344;2023-06-22T00:30:45;95075.69;;;18.65;100.00
3178;BME280;38141;42.666;23.344;2023-06-22T00:33:14;95063.84;;;18.69;100.00
3178;BME280;38141;42.666;23.344;2023-06-22T00:35:41;95082.41;;;18.97;100.00
3178;BME280;38141;42.666;23.344;2023-06-22T00:38:08;95081.91;;;19.02;100.00
3178;BME280;38141;42.666;23.344;2023-06-22T00:40:35;95088.03;;;18.90;100.00
3178;BME280;38141;42.666;23.344;2023-06-22T00:43:02;95075.50;;;18.73;100.00
3178;BME280;38141;42.666;23.344;2023-06-22T00:45:30;95092.41;;;18.87;100.00
3178;BME280;38141;42.666;23.344;2023-06-22T00:47:58;95075.50;;;18.73;100.00
3178;BME280;38141;42.666;23.344;2023-06-22T00:50:28;95084.59;;;18.86;100.00
3178;BME280;38141;42.666;23.344;2023-06-22T00:53:00;95086.44;;;18.92;100.00
3178;BME280;38141;42.666;23.344;2023-06-22T00:55:29;95090.97;;;18.83;100.00
3178;BME280;38141;42.666;23.344;2023-06-22T00:57:56;95095.97;;;18.68;100.00
3178;BME280;38141;42.666;23.344;2023-06-22T01:00:23;95097.75;;;18.58;100.00
3178;BME280;38141;42.666;23.344;2023-06-22T01:02:51;95089.59;;;18.55;100.00
3178;BME280;38141;42.666;23.344;2023-06-22T01:05:19;95103.41;;;18.67;100.00
3178;BME280;38141;42.666;23.344;2023-06-22T01:07:58;95094.50;;;18.44;100.00
3178;BME280;38141;42.666;23.344;2023-06-22T01:10:31;95100.69;;;18.67;100.00
3178;BME280;38141;42.666;23.344;2023-06-22T01:13:04;95104.63;;;18.47;100.00
3178;BME280;38141;42.666;23.344;2023-06-22T01:15:37;95091.13;;;18.36;100.00
3178;BME280;38141;42.666;23.344;2023-06-22T01:18:08;95091.69;;;18.28;100.00
3178;BME280;38141;42.666;23.344;2023-06-22T01:20:36;95070.56;;;18.08;100.00
3178;BME280;38141;42.666;23.344;2023-06-22T01:23:10;95109.06;;;18.21;100.00
3178;BME280;38141;42.666;23.344;2023-06-22T01:25:45;95101.31;;;18.36;100.00
3178;BME280;38141;42.666;23.344;2023-06-22T01:28:23;95088.81;;;18.15;100.00
3178;BME280;38141;42.666;23.344;2023-06-22T01:30:53;95110.00;;;18.31;100.00
3178;BME280;38141;42.666;23.344;2023-06-22T01:33:33;95106.38;;;18.37;100.00
3178;BME280;38141;42.666;23.344;2023-06-22T01:36:01;95088.81;;;18.35;100.00
3178;BME280;38141;42.666;23.344;2023-06-22T01:38:29;95110.78;;;18.51;100.00
3178;BME280;38141;42.666;23.344;2023-06-22T01:40:57;95099.84;;;18.51;100.00
3178;BME280;38141;42.666;23.344;2023-06-22T01:43:25;95099.16;;;18.67;100.00
3178;BME280;38141;42.666;23.344;2023-06-22T01:45:54;95105.38;;;18.67;100.00
3178;BME280;38141;42.666;23.344;2023-06-22T01:48:22;95088.38;;;18.76;100.00
3178;BME280;38141;42.666;23.344;2023-06-22T01:50:51;95095.91;;;18.52;100.00
3178;BME280;38141;42.666;23.344;2023-06-22T01:53:20;95113.28;;;18.65;100.00
3178;BME280;38141;42.666;23.344;2023-06-22T01:55:47;95124.03;;;18.56;100.00
3178;BME280;38141;42.666;23.344;2023-06-22T01:58:14;95122.97;;;18.70;100.00
3178;BME280;38141;42.666;23.344;2023-06-22T02:00:48;95116.34;;;18.67;100.00
3178;BME280;38141;42.666;23.344;2023-06-22T02:03:19;95097.94;;;18.67;100.00
3178;BME280;38141;42.666;23.344;2023-06-22T02:05:50;95122.16;;;18.53;100.00
3178;BME280;38141;42.666;23.344;2023-06-22T02:08:20;95121.81;;;18.67;100.00
3178;BME280;38141;42.666;23.344;2023-06-22T02:10:49;95134.47;;;18.81;100.00
3178;BME280;38141;42.666;23.344;2023-06-22T02:13:17;95117.19;;;18.44;100.00
3178;BME280;38141;42.666;23.344;2023-06-22T02:15:46;95104.94;;;18.49;100.00
3178;BME280;38141;42.666;23.344;2023-06-22T02:18:14;95102.72;;;18.44;100.00
3178;BME280;38141;42.666;23.344;2023-06-22T02:20:42;95091.56;;;18.35;100.00
3178;BME280;38141;42.666;23.344;2023-06-22T02:23:09;94994.69;;;17.46;100.00
3178;BME280;38141;42.666;23.344;2023-06-22T02:25:36;95117.19;;;18.05;100.00
3178;BME280;38141;42.666;23.344;2023-06-22T02:28:03;95107.03;;;17.82;100.00
3178;BME280;38141;42.666;23.344;2023-06-22T02:30:30;95129.03;;;17.98;100.00
3178;BME280;38141;42.666;23.344;2023-06-22T02:32:57;95127.09;;;17.99;100.00
3178;BME280;38141;42.666;23.344;2023-06-22T02:35:25;95123.63;;;17.95;100.00
3178;BME280;38141;42.666;23.344;2023-06-22T02:37:53;95115.75;;;17.97;100.00
3178;BME280;38141;42.666;23.344;2023-06-22T02:40:20;95100.97;;;17.94;100.00
3178;BME280;38141;42.666;23.344;2023-06-22T02:42:47;95121.69;;;18.15;100.00
3178;BME280;38141;42.666;23.344;2023-06-22T02:45:14;95126.16;;;18.05;100.00
3178;BME280;38141;42.666;23.344;2023-06-22T02:47:41;95138.78;;;17.99;100.00
3178;BME280;38141;42.666;23.344;2023-06-22T02:50:08;95052.03;;;17.53;100.00
3178;BME280;38141;42.666;23.344;2023-06-22T02:52:35;95124.88;;;17.90;100.00
3178;BME280;38141;42.666;23.344;2023-06-22T02:55:04;95120.38;;;17.80;100.00
3178;BME280;38141;42.666;23.344;2023-06-22T02:57:32;95124.69;;;18.01;100.00
3178;BME280;38141;42.666;23.344;2023-06-22T02:59:59;95130.16;;;18.01;100.00
3178;BME280;38141;42.666;23.344;2023-06-22T03:02:26;95146.25;;;17.99;100.00
3178;BME280;38141;42.666;23.344;2023-06-22T03:04:53;95142.19;;;18.07;100.00
3178;BME280;38141;42.666;23.344;2023-06-22T03:07:20;95121.38;;;17.90;100.00
3178;BME280;38141;42.666;23.344;2023-06-22T03:09:47;95126.41;;;17.91;100.00
3178;BME280;38141;42.666;23.344;2023-06-22T03:12:15;95118.50;;;17.97;100.00
3178;BME280;38141;42.666;23.344;2023-06-22T03:14:41;95088.31;;;17.81;100.00
3178;BME280;38141;42.666;23.344;2023-06-22T03:17:09;95126.25;;;18.21;100.00
3178;BME280;38141;42.666;23.344;2023-06-22T03:19:36;95149.38;;;18.20;100.00
3178;BME280;38141;42.666;23.344;2023-06-22T03:22:04;95151.72;;;18.18;100.00
3178;BME280;38141;42.666;23.344;2023-06-22T03:24:32;95127.66;;;18.10;100.00
3178;BME280;38141;42.666;23.344;2023-06-22T03:27:00;95158.91;;;18.32;100.00
3178;BME280;38141;42.666;23.344;2023-06-22T03:29:31;95129.28;;;18.07;100.00
3178;BME280;38141;42.666;23.344;2023-06-22T03:31:58;95116.28;;;18.11;100.00
3178;BME280;38141;42.666;23.344;2023-06-22T03:34:25;95128.84;;;18.29;100.00
3178;BME280;38141;42.666;23.344;2023-06-22T03:36:52;95161.09;;;18.41;100.00
3178;BME280;38141;42.666;23.344;2023-06-22T03:39:18;95160.69;;;18.42;100.00
3178;BME280;38141;42.666;23.344;2023-06-22T03:41:45;95162.22;;;18.43;100.00
3178;BME280;38141;42.666;23.344;2023-06-22T03:44:12;95162.81;;;18.54;100.00
3178;BME280;38141;42.666;23.344;2023-06-22T03:46:40;95147.38;;;18.41;100.00
3178;BME280;38141;42.666;23.344;2023-06-22T03:49:07;95181.78;;;18.65;100.00
3178;BME280;38141;42.666;23.344;2023-06-22T03:51:34;95090.28;;;17.80;100.00
3178;BME280;38141;42.666;23.344;2023-06-22T03:54:01;95177.28;;;18.75;100.00
3178;BME280;38141;42.666;23.344;2023-06-22T03:56:27;95187.13;;;18.72;100.00
3178;BME280;38141;42.666;23.344;2023-06-22T03:58:54;95180.56;;;18.86;100.00
3178;BME280;38141;42.666;23.344;2023-06-22T04:01:21;95183.50;;;18.95;100.00
3178;BME280;38141;42.666;23.344;2023-06-22T04:03:50;95184.16;;;19.02;100.00
3178;BME280;38141;42.666;23.344;2023-06-22T04:06:16;95189.84;;;19.12;100.00
3178;BME280;38141;42.666;23.344;2023-06-22T04:08:45;95178.81;;;18.95;100.00
3178;BME280;38141;42.666;23.344;2023-06-22T04:11:16;95195.69;;;19.30;100.00
3178;BME280;38141;42.666;23.344;2023-06-22T04:13:43;95141.34;;;18.89;100.00
3178;BME280;38141;42.666;23.344;2023-06-22T04:16:10;95176.94;;;19.08;100.00
3178;BME280;38141;42.666;23.344;2023-06-22T04:18:36;95164.66;;;19.33;100.00
3178;BME280;38141;42.666;23.344;2023-06-22T04:21:05;95139.44;;;19.22;100.00
3178;BME280;38141;42.666;23.344;2023-06-22T04:23:31;95177.25;;;19.66;100.00
3178;BME280;38141;42.666;23.344;2023-06-22T04:25:58;95132.34;;;19.73;100.00
3178;BME280;38141;42.666;23.344;2023-06-22T04:28:25;95142.13;;;19.90;100.00
3178;BME280;38141;42.666;23.344;2023-06-22T04:30:52;95094.38;;;19.71;100.00
3178;BME280;38141;42.666;23.344;2023-06-22T04:33:23;95085.75;;;19.85;100.00
3178;BME280;38141;42.666;23.344;2023-06-22T04:35:50;95082.69;;;19.67;100.00
3178;BME280;38141;42.666;23.344;2023-06-22T04:38:20;95136.97;;;20.37;100.00
3178;BME280;38141;42.666;23.344;2023-06-22T04:40:48;95023.34;;;19.57;100.00
3178;BME280;38141;42.666;23.344;2023-06-22T04:43:14;95118.69;;;20.02;100.00
3178;BME280;38141;42.666;23.344;2023-06-22T04:45:41;95143.97;;;20.54;100.00
3178;BME280;38141;42.666;23.344;2023-06-22T04:48:08;95127.16;;;20.65;100.00
3178;BME280;38141;42.666;23.344;2023-06-22T04:50:35;95040.47;;;20.06;100.00
3178;BME280;38141;42.666;23.344;2023-06-22T04:53:03;95139.44;;;20.89;100.00
3178;BME280;38141;42.666;23.344;2023-06-22T04:55:32;95155.88;;;20.64;100.00
3178;BME280;38141;42.666;23.344;2023-06-22T04:57:59;95157.72;;;21.08;100.00
3178;BME280;38141;42.666;23.344;2023-06-22T05:00:33;95154.13;;;21.37;100.00
3178;BME280;38141;42.666;23.344;2023-06-22T05:03:02;95120.50;;;21.67;100.00
3178;BME280;38141;42.666;23.344;2023-06-22T05:05:29;95163.69;;;22.30;100.00
3178;BME280;38141;42.666;23.344;2023-06-22T05:07:56;95154.88;;;22.56;100.00
3178;BME280;38141;42.666;23.344;2023-06-22T05:10:25;95094.38;;;22.62;100.00
3178;BME280;38141;42.666;23.344;2023-06-22T05:12:54;95130.16;;;23.27;100.00
3178;BME280;38141;42.666;23.344;2023-06-22T05:15:22;95153.72;;;23.99;100.00
3178;BME280;38141;42.666;23.344;2023-06-22T05:17:52;95113.69;;;24.40;100.00
3178;BME280;38141;42.666;23.344;2023-06-22T05:20:19;95092.63;;;24.70;91.97
3178;BME280;38141;42.666;23.344;2023-06-22T05:22:47;95040.34;;;24.63;87.92
3178;BME280;38141;42.666;23.344;2023-06-22T05:25:14;95098.44;;;25.74;82.08
3178;BME280;38141;42.666;23.344;2023-06-22T05:27:41;95161.69;;;27.09;74.43
3178;BME280;38141;42.666;23.344;2023-06-22T05:30:11;95162.34;;;27.63;70.53
3178;BME280;38141;42.666;23.344;2023-06-22T05:32:38;95164.00;;;28.65;64.18
3178;BME280;38141;42.666;23.344;2023-06-22T05:35:05;95178.19;;;28.67;63.28
3178;BME280;38141;42.666;23.344;2023-06-22T05:37:33;95166.72;;;28.59;62.24
3178;BME280;38141;42.666;23.344;2023-06-22T05:40:00;95086.63;;;27.88;61.27
3178;BME280;38141;42.666;23.344;2023-06-22T05:42:27;95162.22;;;29.65;57.05
3178;BME280;38141;42.666;23.344;2023-06-22T05:44:53;95168.63;;;30.08;55.13
3178;BME280;38141;42.666;23.344;2023-06-22T05:47:22;95195.06;;;31.31;50.80
3178;BME280;38141;42.666;23.344;2023-06-22T05:49:48;95196.59;;;32.27;49.24
3178;BME280;38141;42.666;23.344;2023-06-22T05:52:16;95183.06;;;31.08;49.79
3178;BME280;38141;42.666;23.344;2023-06-22T05:54:44;95135.28;;;31.01;49.23
3178;BME280;38141;42.666;23.344;2023-06-22T05:57:11;95187.06;;;32.74;46.76
3178;BME280;38141;42.666;23.344;2023-06-22T05:59:37;95155.53;;;32.57;45.46
3178;BME280;38141;42.666;23.344;2023-06-22T06:02:05;95191.38;;;33.68;43.42
3178;BME280;38141;42.666;23.344;2023-06-22T06:04:33;95096.63;;;34.47;41.19
3178;BME280;38141;42.666;23.344;2023-06-22T06:07:01;95182.19;;;34.52;40.57
3178;BME280;38141;42.666;23.344;2023-06-22T06:09:27;95178.25;;;35.22;40.09
3178;BME280;38141;42.666;23.344;2023-06-22T06:11:54;95181.75;;;35.47;40.47
3178;BME280;38141;42.666;23.344;2023-06-22T06:14:21;95146.25;;;36.21;38.78
3178;BME280;38141;42.666;23.344;2023-06-22T06:16:48;95181.69;;;36.42;38.73
3178;BME280;38141;42.666;23.344;2023-06-22T06:19:15;95182.94;;;38.58;35.44
3178;BME280;38141;42.666;23.344;2023-06-22T06:21:43;95180.88;;;37.68;35.86
3178;BME280;38141;42.666;23.344;2023-06-22T06:24:11;95176.97;;;38.41;34.80
3178;BME280;38141;42.666;23.344;2023-06-22T06:26:38;95183.16;;;40.21;32.82
3178;BME280;38141;42.666;23.344;2023-06-22T06:29:04;95180.09;;;38.50;33.72
3178;BME280;38141;42.666;23.344;2023-06-22T06:31:32;95180.06;;;38.01;34.24
3178;BME280;38141;42.666;23.344;2023-06-22T06:33:59;95182.44;;;38.39;34.17
3178;BME280;38141;42.666;23.344;2023-06-22T06:36:26;95183.91;;;37.70;35.36
3178;BME280;38141;42.666;23.344;2023-06-22T06:38:54;95130.91;;;37.83;34.69
3178;BME280;38141;42.666;23.344;2023-06-22T06:41:20;95151.72;;;37.73;35.65
3178;BME280;38141;42.666;23.344;2023-06-22T06:43:48;95100.19;;;38.65;34.11
3178;BME280;38141;42.666;23.344;2023-06-22T06:46:15;95154.34;;;38.41;34.46
3178;BME280;38141;42.666;23.344;2023-06-22T06:48:42;95166.91;;;38.04;34.36
3178;BME280;38141;42.666;23.344;2023-06-22T06:51:08;95166.13;;;37.28;36.36
3178;BME280;38141;42.666;23.344;2023-06-22T06:53:36;95167.00;;;37.23;36.47
3178;BME280;38141;42.666;23.344;2023-06-22T06:56:04;95141.94;;;35.56;38.28
3178;BME280;38141;42.666;23.344;2023-06-22T06:58:31;95157.16;;;35.47;38.86
3178;BME280;38141;42.666;23.344;2023-06-22T07:00:58;95141.28;;;35.63;39.27
3178;BME280;38141;42.666;23.344;2023-06-22T07:03:25;95124.03;;;35.85;38.73
3178;BME280;38141;42.666;23.344;2023-06-22T07:05:52;95144.41;;;36.63;37.34
3178;BME280;38141;42.666;23.344;2023-06-22T07:08:19;95142.72;;;35.38;39.13
3178;BME280;38141;42.666;23.344;2023-06-22T07:10:45;95157.69;;;35.08;39.66
3178;BME280;38141;42.666;23.344;2023-06-22T07:13:14;95153.69;;;36.18;38.09
3178;BME280;38141;42.666;23.344;2023-06-22T07:15:40;95154.63;;;37.60;35.63
3178;BME280;38141;42.666;23.344;2023-06-22T07:18:07;95154.91;;;36.36;37.53
3178;BME280;38141;42.666;23.344;2023-06-22T07:20:34;95159.09;;;36.95;35.85
3178;BME280;38141;42.666;23.344;2023-06-22T07:23:01;95146.38;;;38.88;33.40
3178;BME280;38141;42.666;23.344;2023-06-22T07:25:27;95162.72;;;38.46;34.27
3178;BME280;38141;42.666;23.344;2023-06-22T07:27:58;95146.69;;;38.49;33.98
3178;BME280;38141;42.666;23.344;2023-06-22T07:30:29;95143.13;;;37.45;35.22
3178;BME280;38141;42.666;23.344;2023-06-22T07:32:56;95148.50;;;36.62;36.41
3178;BME280;38141;42.666;23.344;2023-06-22T07:35:23;95146.34;;;36.54;37.08
3178;BME280;38141;42.666;23.344;2023-06-22T07:37:50;95140.88;;;37.09;35.80
3178;BME280;38141;42.666;23.344;2023-06-22T07:40:17;95150.72;;;37.03;37.09
3178;BME280;38141;42.666;23.344;2023-06-22T07:42:44;95148.50;;;34.70;41.57
3178;BME280;38141;42.666;23.344;2023-06-22T07:45:13;95141.34;;;35.25;40.34
3178;BME280;38141;42.666;23.344;2023-06-22T07:47:41;95148.44;;;35.32;40.71
3178;BME280;38141;42.666;23.344;2023-06-22T07:50:09;95154.16;;;33.92;42.72
3178;BME280;38141;42.666;23.344;2023-06-22T07:52:36;95131.25;;;34.98;41.49
3178;BME280;38141;42.666;23.344;2023-06-22T07:55:03;95156.25;;;35.39;41.05
3178;BME280;38141;42.666;23.344;2023-06-22T07:57:30;95136.34;;;34.38;42.19
3178;BME280;38141;42.666;23.344;2023-06-22T07:59:59;95148.66;;;35.15;41.61
3178;BME280;38141;42.666;23.344;2023-06-22T08:02:26;95146.53;;;34.84;40.23
3178;BME280;38141;42.666;23.344;2023-06-22T08:04:54;95144.72;;;35.05;39.40
3178;BME280;38141;42.666;23.344;2023-06-22T08:07:21;95126.16;;;34.97;40.18
3178;BME280;38141;42.666;23.344;2023-06-22T08:09:48;95096.66;;;34.66;40.58
3178;BME280;38141;42.666;23.344;2023-06-22T08:12:15;95130.72;;;35.18;39.89
3178;BME280;38141;42.666;23.344;2023-06-22T08:14:43;95118.63;;;35.74;39.14
3178;BME280;38141;42.666;23.344;2023-06-22T08:17:10;95121.44;;;35.05;40.28
3178;BME280;38141;42.666;23.344;2023-06-22T08:19:37;95132.41;;;35.59;38.48
3178;BME280;38141;42.666;23.344;2023-06-22T08:22:05;95122.03;;;35.67;38.34
3178;BME280;38141;42.666;23.344;2023-06-22T08:24:32;95110.13;;;35.10;39.44
3178;BME280;38141;42.666;23.344;2023-06-22T08:26:59;95118.16;;;36.41;37.78
3178;BME280;38141;42.666;23.344;2023-06-22T08:29:26;95092.22;;;36.30;37.02
3178;BME280;38141;42.666;23.344;2023-06-22T08:31:52;95115.41;;;37.22;35.94
3178;BME280;38141;42.666;23.344;2023-06-22T08:34:20;95115.00;;;37.52;35.53
3178;BME280;38141;42.666;23.344;2023-06-22T08:36:50;95113.53;;;37.38;34.89
3178;BME280;38141;42.666;23.344;2023-06-22T08:39:20;95109.91;;;36.57;36.78
3178;BME280;38141;42.666;23.344;2023-06-22T08:41:47;95125.28;;;36.55;37.91
3178;BME280;38141;42.666;23.344;2023-06-22T08:44:15;95106.59;;;35.87;39.13
3178;BME280;38141;42.666;23.344;2023-06-22T08:46:41;95121.00;;;35.01;38.49
3178;BME280;38141;42.666;23.344;2023-06-22T08:49:08;95129.91;;;36.00;38.61
3178;BME280;38141;42.666;23.344;2023-06-22T08:51:36;95106.38;;;35.85;39.51
3178;BME280;38141;42.666;23.344;2023-06-22T08:54:03;95126.41;;;35.17;39.91
3178;BME280;38141;42.666;23.344;2023-06-22T08:56:31;95116.22;;;35.46;39.27
3178;BME280;38141;42.666;23.344;2023-06-22T08:58:58;95112.91;;;36.06;38.03
3178;BME280;38141;42.666;23.344;2023-06-22T09:01:25;95111.91;;;36.95;38.11
3178;BME280;38141;42.666;23.344;2023-06-22T09:03:52;95104.25;;;36.83;36.22
3178;BME280;38141;42.666;23.344;2023-06-22T09:06:23;95099.34;;;37.72;34.48
3178;BME280;38141;42.666;23.344;2023-06-22T09:08:50;95095.25;;;36.71;35.52
3178;BME280;38141;42.666;23.344;2023-06-22T09:11:16;95103.13;;;37.95;34.06
3178;BME280;38141;42.666;23.344;2023-06-22T09:13:44;95109.13;;;37.92;33.62
3178;BME280;38141;42.666;23.344;2023-06-22T09:16:11;95079.72;;;38.44;33.53
3178;BME280;38141;42.666;23.344;2023-06-22T09:18:38;95085.66;;;37.21;35.27
3178;BME280;38141;42.666;23.344;2023-06-22T09:21:05;95108.28;;;38.97;32.61
3178;BME280;38141;42.666;23.344;2023-06-22T09:23:32;95099.94;;;39.50;32.00
3178;BME280;38141;42.666;23.344;2023-06-22T09:25:59;95098.41;;;39.34;32.08
3178;BME280;38141;42.666;23.344;2023-06-22T09:28:26;95100.47;;;38.82;33.20
3178;BME280;38141;42.666;23.344;2023-06-22T09:30:54;95038.44;;;37.22;34.39
3178;BME280;38141;42.666;23.344;2023-06-22T09:33:25;95113.34;;;39.42;32.36
3178;BME280;38141;42.666;23.344;2023-06-22T09:35:52;95103.16;;;40.37;31.11
3178;BME280;38141;42.666;23.344;2023-06-22T09:38:19;95105.06;;;39.89;31.94
3178;BME280;38141;42.666;23.344;2023-06-22T09:40:46;95109.00;;;39.71;31.92
3178;BME280;38141;42.666;23.344;2023-06-22T09:43:13;95111.34;;;39.06;31.64
3178;BME280;38141;42.666;23.344;2023-06-22T09:45:39;95107.56;;;39.93;30.97
3178;BME280;38141;42.666;23.344;2023-06-22T09:48:07;95102.16;;;38.85;32.42
3178;BME280;38141;42.666;23.344;2023-06-22T09:50:35;95076.94;;;38.51;32.70
3178;BME280;38141;42.666;23.344;2023-06-22T09:53:02;95097.50;;;38.52;33.61
3178;BME280;38141;42.666;23.344;2023-06-22T09:55:29;95091.34;;;38.04;34.00
3178;BME280;38141;42.666;23.344;2023-06-22T09:57:56;95098.72;;;39.30;31.92
3178;BME280;38141;42.666;23.344;2023-06-22T10:00:23;95084.06;;;39.62;32.02
3178;BME280;38141;42.666;23.344;2023-06-22T10:02:49;95081.28;;;39.92;31.37
3178;BME280;38141;42.666;23.344;2023-06-22T10:05:19;95087.44;;;40.99;31.29
3178;BME280;38141;42.666;23.344;2023-06-22T10:07:46;95090.69;;;39.72;31.84
3178;BME280;38141;42.666;23.344;2023-06-22T10:10:13;95069.31;;;38.82;33.56
3178;BME280;38141;42.666;23.344;2023-06-22T10:12:45;95077.97;;;39.28;32.52
3178;BME280;38141;42.666;23.344;2023-06-22T10:15:13;95079.41;;;38.55;34.53
3178;BME280;38141;42.666;23.344;2023-06-22T10:17:39;95077.28;;;38.84;32.39
3178;BME280;38141;42.666;23.344;2023-06-22T10:20:09;95083.66;;;39.35;31.36
3178;BME280;38141;42.666;23.344;2023-06-22T10:22:40;95078.38;;;38.81;31.53
3178;BME280;38141;42.666;23.344;2023-06-22T10:25:08;95080.28;;;38.86;32.17
3178;BME280;38141;42.666;23.344;2023-06-22T10:27:35;95077.22;;;37.83;33.19
3178;BME280;38141;42.666;23.344;2023-06-22T10:30:06;95056.00;;;36.47;35.03
3178;BME280;38141;42.666;23.344;2023-06-22T10:32:33;95068.91;;;36.69;34.81
3178;BME280;38141;42.666;23.344;2023-06-22T10:35:00;95071.47;;;36.80;33.97
3178;BME280;38141;42.666;23.344;2023-06-22T10:37:27;95070.34;;;36.96;34.03
3178;BME280;38141;42.666;23.344;2023-06-22T10:39:56;95036.34;;;37.02;33.86
3178;BME280;38141;42.666;23.344;2023-06-22T10:42:23;95061.47;;;36.92;33.08
3178;BME280;38141;42.666;23.344;2023-06-22T10:44:50;95057.75;;;36.97;33.15
3178;BME280;38141;42.666;23.344;2023-06-22T10:47:17;95063.91;;;36.48;33.69
3178;BME280;38141;42.666;23.344;2023-06-22T10:49:43;95056.59;;;35.48;36.07
3178;BME280;38141;42.666;23.344;2023-06-22T10:52:10;95049.31;;;35.97;35.85
3178;BME280;38141;42.666;23.344;2023-06-22T10:54:38;95055.91;;;35.42;36.15
3178;BME280;38141;42.666;23.344;2023-06-22T10:57:06;95037.53;;;34.90;36.15
3178;BME280;38141;42.666;23.344;2023-06-22T10:59:33;95049.28;;;35.07;36.97
3178;BME280;38141;42.666;23.344;2023-06-22T11:02:00;95042.38;;;35.40;36.56
3178;BME280;38141;42.666;23.344;2023-06-22T11:04:28;94970.25;;;35.24;36.84
3178;BME280;38141;42.666;23.344;2023-06-22T11:06:55;95035.94;;;35.85;35.26
3178;BME280;38141;42.666;23.344;2023-06-22T11:09:22;95047.94;;;34.95;35.74
3178;BME280;38141;42.666;23.344;2023-06-22T11:11:50;95042.91;;;35.39;35.86
3178;BME280;38141;42.666;23.344;2023-06-22T11:14:20;95045.94;;;35.41;36.01
3178;BME280;38141;42.666;23.344;2023-06-22T11:16:47;95036.28;;;35.04;36.21
3178;BME280;38141;42.666;23.344;2023-06-22T11:19:14;95037.50;;;35.09;36.65
3178;BME280;38141;42.666;23.344;2023-06-22T11:21:41;95039.22;;;35.12;36.62
3178;BME280;38141;42.666;23.344;2023-06-22T11:24:08;95000.38;;;34.78;36.21
3178;BME280;38141;42.666;23.344;2023-06-22T11:26:35;95021.97;;;34.52;37.20
3178;BME280;38141;42.666;23.344;2023-06-22T11:29:02;95016.81;;;34.13;38.09
3178;BME280;38141;42.666;23.344;2023-06-22T11:31:32;95019.94;;;34.09;38.08
3178;BME280;38141;42.666;23.344;2023-06-22T11:33:59;95015.06;;;33.37;38.24
3178;BME280;38141;42.666;23.344;2023-06-22T11:36:26;95020.94;;;33.03;38.43
3178;BME280;38141;42.666;23.344;2023-06-22T11:38:52;95011.50;;;33.36;39.36
3178;BME280;38141;42.666;23.344;2023-06-22T11:41:19;95016.06;;;33.39;38.67
3178;BME280;38141;42.666;23.344;2023-06-22T11:43:46;95007.53;;;33.50;39.10
3178;BME280;38141;42.666;23.344;2023-06-22T11:46:13;95000.34;;;33.55;38.59
3178;BME280;38141;42.666;23.344;2023-06-22T11:48:41;95008.88;;;33.44;39.76
3178;BME280;38141;42.666;23.344;2023-06-22T11:51:08;95003.94;;;32.96;40.80
3178;BME280;38141;42.666;23.344;2023-06-22T11:53:35;94988.81;;;33.04;40.71
3178;BME280;38141;42.666;23.344;2023-06-22T11:56:02;94996.78;;;32.95;40.19
3178;BME280;38141;42.666;23.344;2023-06-22T11:58:29;95000.06;;;32.99;40.99
3178;BME280;38141;42.666;23.344;2023-06-22T12:00:55;94995.38;;;33.13;39.96
3178;BME280;38141;42.666;23.344;2023-06-22T12:03:22;94981.75;;;32.98;40.18
3178;BME280;38141;42.666;23.344;2023-06-22T12:05:51;94992.31;;;33.16;39.80
3178;BME280;38141;42.666;23.344;2023-06-22T12:08:18;94998.53;;;33.58;39.92
3178;BME280;38141;42.666;23.344;2023-06-22T12:10:45;95008.50;;;33.83;39.16
3178;BME280;38141;42.666;23.344;2023-06-22T12:13:11;94980.88;;;33.87;39.64
3178;BME280;38141;42.666;23.344;2023-06-22T12:15:38;95018.94;;;34.07;39.84
3178;BME280;38141;42.666;23.344;2023-06-22T12:18:05;95016.00;;;33.21;40.52
3178;BME280;38141;42.666;23.344;2023-06-22T12:20:32;95000.16;;;32.52;42.81
3178;BME280;38141;42.666;23.344;2023-06-22T12:23:01;94990.25;;;31.88;44.06
3178;BME280;38141;42.666;23.344;2023-06-22T12:25:28;95025.31;;;32.06;44.59
3178;BME280;38141;42.666;23.344;2023-06-22T12:27:55;95026.69;;;31.71;45.26
3178;BME280;38141;42.666;23.344;2023-06-22T12:30:22;95045.56;;;31.32;45.39
3178;BME280;38141;42.666;23.344;2023-06-22T12:32:48;95043.78;;;31.12;46.37
3178;BME280;38141;42.666;23.344;2023-06-22T12:35:16;95054.69;;;30.94;46.81
3178;BME280;38141;42.666;23.344;2023-06-22T12:37:44;95044.81;;;30.17;49.14
3178;BME280;38141;42.666;23.344;2023-06-22T12:40:12;95055.69;;;29.98;51.51
3178;BME280;38141;42.666;23.344;2023-06-22T12:42:39;95062.59;;;29.03;57.36
3178;BME280;38141;42.666;23.344;2023-06-22T12:45:07;95057.66;;;28.66;59.94
3178;BME280;38141;42.666;23.344;2023-06-22T12:47:34;95045.81;;;28.46;65.45
3178;BME280;38141;42.666;23.344;2023-06-22T12:50:01;95050.78;;;28.82;67.74
3178;BME280;38141;42.666;23.344;2023-06-22T12:52:30;95049.94;;;29.02;67.10
3178;BME280;38141;42.666;23.344;2023-06-22T12:54:57;95094.72;;;29.24;68.96
3178;BME280;38141;42.666;23.344;2023-06-22T12:57:25;95078.28;;;28.28;71.92